KMGE/MGE METAR and TAF weather

Enter ICAO airport designator
Station Type Date Time Source
KMGE METAR 2022/01/29 10:56 UTC NOAA

KMGE 291056Z AUTO 33017G26KT 10SM SCT031 M04/M11 A3010 RMK AO2 PK WND 30028/07 SLP204 T10381109 $


Station Type Date Time Source
KMGE Decoded METAR 2022/01/29 10:56 UTC NOAA

Marietta / Dobbins Air Force Base, GA, United States (KMGE) 33-55N 084-31W 326M
Jan 29, 2022 - 05:56 AM EST / 2022.01.29 1056 UTC
Wind: from the NNW (330 degrees) at 20 MPH (17 KT) gusting to 30 MPH (26 KT):0
Visibility: 10 mile(s):0
Sky conditions: partly cloudy
Temperature: 25.2 F (-3.8 C)
Windchill: 10 F (-12 C):1
Dew Point: 12.4 F (-10.9 C)
Relative Humidity: 57%
Pressure (altimeter): 30.1 in. Hg (1019 hPa)
ob: KMGE 291056Z AUTO 33017G26KT 10SM SCT031 M04/M11 A3010 RMK AO2 PK WND 30028/07 SLP204 T10381109
cycle: 11

Station Type Date Time Source
KMGE TAF 2022/01/29 11:09 UTC NOAA

TAF TAF
AMD KMGE 291105Z 2911/3004 31015G25KT 9999 FEW025 FEW070 BKN250 QNH3010INS
BECMG 2921/2922 29012G18KT 9999 SKC QNH3016INS TX02/2920Z TNM06/2912Z

Example: see airport list